CQ4 weather

CLOSED Amherst Airport
Amherst, Nova Scotia, Canada

Public forecast

Using degrees Celsius for public forecast. Weather courtesy of forecast.io.

METAR (pilot weather report)

Closest report is Greater Moncton International Airport, 25.7 nm (47.6 km) NW. Retrieved 2019/09/16 07:00 UTC (58 minutes ago):

CYQM 160700Z 23010KT 15SM FEW035 BKN085 BKN150 13/12 A2984 RMK SC1AC5AC1 SLP107

TAF (pilot weather forecast)

Closest forecast is Greater Moncton International Airport, 25.7 nm (47.6 km) NW. Retrieved 2019/09/16 06:48 UTC (1 hour ago):

TAF CYQM 160544Z 1606/1706 25008KT P6SM -SHRA OVC060 FM160700 25009KT P6SM OVC060 FM161500 28010KT P6SM -SHRA BKN040 FM162100 34009KT P6SM OVC030 TEMPO 1621/1703 6SM -SHRA BR OVC015 FM170300 36010KT 6SM -RA BR OVC008 RMK NXT FCST BY 161200Z